createdAt,value
2023-04-15T00:00:21.618Z,505.00
2023-04-15T00:01:21.585Z,505.00
2023-04-15T00:02:21.588Z,502.00
2023-04-15T00:03:21.666Z,506.00
2023-04-15T00:04:21.557Z,506.00
2023-04-15T00:05:21.432Z,506.00
2023-04-15T00:06:21.387Z,502.00
2023-04-15T00:07:21.354Z,501.00
2023-04-15T00:08:21.315Z,503.00
2023-04-15T00:09:21.271Z,505.00
2023-04-15T00:10:21.242Z,501.00
2023-04-15T00:11:21.206Z,507.00
2023-04-15T00:12:21.182Z,501.00
2023-04-15T00:13:21.214Z,505.00
2023-04-15T00:14:21.111Z,500.00
2023-04-15T00:15:21.073Z,506.00
2023-04-15T00:16:21.044Z,508.00
2023-04-15T00:17:20.993Z,504.00
2023-04-15T00:18:20.962Z,509.00
2023-04-15T00:19:20.897Z,503.00
2023-04-15T00:20:20.841Z,500.00
2023-04-15T00:21:20.808Z,505.00
2023-04-15T00:22:20.778Z,505.00
2023-04-15T00:23:20.735Z,506.00
2023-04-15T00:24:20.690Z,500.00
2023-04-15T00:25:20.659Z,508.00
2023-04-15T00:26:20.656Z,508.00
2023-04-15T00:27:20.627Z,501.00
2023-04-15T00:28:20.593Z,507.00
2023-04-15T00:29:20.572Z,503.00
2023-04-15T00:30:20.565Z,505.00
2023-04-15T00:31:20.586Z,505.00
2023-04-15T00:32:20.613Z,511.00
2023-04-15T00:33:20.555Z,506.00
2023-04-15T00:34:20.530Z,506.00
2023-04-15T00:35:20.516Z,507.00
2023-04-15T00:36:20.487Z,509.00
2023-04-15T00:37:20.457Z,504.00
2023-04-15T00:38:20.521Z,501.00
2023-04-15T00:39:20.493Z,505.00
2023-04-15T00:40:20.476Z,503.00
2023-04-15T00:41:20.450Z,506.00
2023-04-15T00:42:20.431Z,503.00
2023-04-15T00:43:20.403Z,504.00
2023-04-15T00:44:20.461Z,501.00
2023-04-15T00:45:20.568Z,501.00
2023-04-15T00:46:20.463Z,509.00
2023-04-15T00:47:20.371Z,507.00
2023-04-15T00:48:20.339Z,509.00
2023-04-15T00:49:20.333Z,505.00
2023-04-15T00:50:20.293Z,509.00
2023-04-15T00:51:20.256Z,503.00
2023-04-15T00:52:20.248Z,506.00
2023-04-15T00:53:20.311Z,501.00
2023-04-15T00:54:20.410Z,500.00
2023-04-15T00:55:20.255Z,501.00
2023-04-15T00:56:20.231Z,504.00
2023-04-15T00:57:20.197Z,502.00
2023-04-15T00:58:20.217Z,504.00
2023-04-15T00:59:20.174Z,505.00
2023-04-15T01:00:20.174Z,503.00
2023-04-15T01:01:20.195Z,508.00
2023-04-15T01:02:20.163Z,501.00
2023-04-15T01:03:20.242Z,507.00
2023-04-15T01:04:20.153Z,510.00
2023-04-15T01:05:20.060Z,508.00
2023-04-15T01:06:20.038Z,506.00
2023-04-15T01:07:20.005Z,509.00
2023-04-15T01:08:19.985Z,507.00
2023-04-15T01:09:19.973Z,507.00
2023-04-15T01:10:19.955Z,502.00
2023-04-15T01:11:19.921Z,501.00
2023-04-15T01:12:19.899Z,505.00
2023-04-15T01:13:19.879Z,506.00
2023-04-15T01:14:19.866Z,505.00
2023-04-15T01:15:19.851Z,500.00
2023-04-15T01:16:19.870Z,507.00
2023-04-15T01:17:19.866Z,508.00
2023-04-15T01:18:19.816Z,503.00
2023-04-15T01:19:19.800Z,502.00
2023-04-15T01:20:19.768Z,504.00
2023-04-15T01:21:19.825Z,505.00
2023-04-15T01:22:19.862Z,509.00
2023-04-15T01:23:19.845Z,504.00
2023-04-15T01:24:19.818Z,509.00
2023-04-15T01:25:19.792Z,502.00
2023-04-15T01:26:19.774Z,500.00
2023-04-15T01:27:19.821Z,503.00
2023-04-15T01:28:19.798Z,500.00
2023-04-15T01:29:19.766Z,505.00
2023-04-15T01:30:19.757Z,505.00
2023-04-15T01:31:19.763Z,505.00
2023-04-15T01:32:19.800Z,508.00
2023-04-15T01:33:19.711Z,503.00
2023-04-15T01:34:19.682Z,504.00
2023-04-15T01:35:19.657Z,506.00
2023-04-15T01:36:19.639Z,508.00
2023-04-15T01:37:19.630Z,506.00
2023-04-15T01:38:19.657Z,505.00
2023-04-15T01:39:19.636Z,501.00
2023-04-15T01:40:19.628Z,500.00
2023-04-15T01:41:19.596Z,505.00
2023-04-15T01:42:19.574Z,508.00
2023-04-15T01:43:19.602Z,510.00
2023-04-15T01:44:19.581Z,504.00
2023-04-15T01:45:19.560Z,506.00
2023-04-15T01:46:19.567Z,512.00
2023-04-15T01:47:19.539Z,503.00
2023-04-15T01:48:19.567Z,510.00
2023-04-15T01:49:19.650Z,510.00
2023-04-15T01:50:19.618Z,506.00
2023-04-15T01:51:19.611Z,509.00
2023-04-15T01:52:19.561Z,502.00
2023-04-15T01:53:19.528Z,508.00
2023-04-15T01:54:19.520Z,505.00
2023-04-15T01:55:19.570Z,510.00
2023-04-15T01:56:19.543Z,508.00
2023-04-15T01:57:19.512Z,508.00
2023-04-15T01:58:19.491Z,508.00
2023-04-15T01:59:19.465Z,504.00
2023-04-15T02:00:19.444Z,501.00
2023-04-15T02:01:19.437Z,504.00
2023-04-15T02:02:19.518Z,504.00
2023-04-15T02:03:19.487Z,509.00
2023-04-15T02:04:19.367Z,505.00
2023-04-15T02:05:19.365Z,503.00
2023-04-15T02:06:19.335Z,504.00
2023-04-15T02:07:19.346Z,507.00
2023-04-15T02:08:19.285Z,501.00
2023-04-15T02:09:19.270Z,508.00
2023-04-15T02:10:19.237Z,504.00
2023-04-15T02:11:19.285Z,502.00
2023-04-15T02:12:19.267Z,503.00
2023-04-15T02:13:19.236Z,503.00
2023-04-15T02:14:19.235Z,501.00
2023-04-15T02:15:19.193Z,505.00
2023-04-15T02:16:19.286Z,501.00
2023-04-15T02:17:19.179Z,502.00
2023-04-15T02:18:19.138Z,502.00
2023-04-15T02:19:19.138Z,500.00
2023-04-15T02:20:19.109Z,505.00
2023-04-15T02:21:19.072Z,507.00
2023-04-15T02:22:19.108Z,505.00
2023-04-15T02:23:19.032Z,504.00
2023-04-15T02:24:19.010Z,504.00
2023-04-15T02:25:19.020Z,511.00
2023-04-15T02:26:18.969Z,508.00
2023-04-15T02:27:18.983Z,504.00
2023-04-15T02:28:18.949Z,509.00
2023-04-15T02:29:19.011Z,503.00
2023-04-15T02:30:18.901Z,501.00
2023-04-15T02:31:18.887Z,507.00
2023-04-15T02:32:18.963Z,508.00
2023-04-15T02:33:18.908Z,505.00
2023-04-15T02:34:18.883Z,506.00
2023-04-15T02:35:18.855Z,503.00
2023-04-15T02:36:18.837Z,506.00
2023-04-15T02:37:18.817Z,504.00
2023-04-15T02:38:18.876Z,509.00
2023-04-15T02:39:18.948Z,508.00
2023-04-15T02:40:19.008Z,506.00
2023-04-15T02:41:18.988Z,501.00
2023-04-15T02:42:18.952Z,500.00
2023-04-15T02:43:18.921Z,506.00
2023-04-15T02:44:18.892Z,504.00
2023-04-15T02:45:18.872Z,500.00
2023-04-15T02:46:18.935Z,503.00
2023-04-15T02:47:18.996Z,506.00
2023-04-15T02:48:19.039Z,506.00
2023-04-15T02:49:19.010Z,506.00
2023-04-15T02:50:18.998Z,508.00
2023-04-15T02:51:18.971Z,507.00
2023-04-15T02:52:18.937Z,506.00
2023-04-15T02:53:19.008Z,500.00
2023-04-15T02:54:19.077Z,503.00
2023-04-15T02:55:19.167Z,514.00
2023-04-15T02:56:19.143Z,506.00
2023-04-15T02:57:19.112Z,506.00
2023-04-15T02:58:19.098Z,509.00
2023-04-15T02:59:19.065Z,508.00
2023-04-15T03:00:19.041Z,503.00
2023-04-15T03:01:19.188Z,508.00
2023-04-15T03:02:19.094Z,502.00
2023-04-15T03:03:19.081Z,503.00
2023-04-15T03:04:19.057Z,508.00
2023-04-15T03:05:19.016Z,505.00
2023-04-15T03:06:18.983Z,507.00
2023-04-15T03:07:18.951Z,503.00
2023-04-15T03:08:18.925Z,511.00
2023-04-15T03:09:18.888Z,507.00
2023-04-15T03:10:18.922Z,505.00
2023-04-15T03:11:18.897Z,504.00
2023-04-15T03:12:18.867Z,507.00
2023-04-15T03:13:18.852Z,502.00
2023-04-15T03:14:18.815Z,502.00
2023-04-15T03:15:18.874Z,504.00
2023-04-15T03:16:18.885Z,504.00
2023-04-15T03:17:18.892Z,504.00
2023-04-15T03:18:18.810Z,510.00
2023-04-15T03:19:18.783Z,502.00
2023-04-15T03:20:18.777Z,508.00
2023-04-15T03:21:18.719Z,511.00
2023-04-15T03:22:18.698Z,501.00
2023-04-15T03:23:18.683Z,507.00
2023-04-15T03:24:18.659Z,503.00
2023-04-15T03:25:18.624Z,502.00
2023-04-15T03:26:19.619Z,500.00
2023-04-15T03:27:18.660Z,503.00
2023-04-15T03:28:18.637Z,503.00
2023-04-15T03:29:18.614Z,500.00
2023-04-15T03:30:18.595Z,503.00
2023-04-15T03:31:18.617Z,508.00
2023-04-15T03:32:18.585Z,509.00
2023-04-15T03:33:19.559Z,509.00
2023-04-15T03:34:18.516Z,509.00
2023-04-15T03:35:18.493Z,509.00
2023-04-15T03:36:18.444Z,509.00
2023-04-15T03:37:18.412Z,508.00
2023-04-15T03:38:18.370Z,508.00
2023-04-15T03:39:18.341Z,507.00
2023-04-15T03:40:18.312Z,501.00
2023-04-15T03:41:18.264Z,500.00
2023-04-15T03:42:18.227Z,505.00
2023-04-15T03:43:18.182Z,507.00
2023-04-15T03:44:18.140Z,503.00
2023-04-15T03:45:18.114Z,509.00
2023-04-15T03:46:18.099Z,503.00
2023-04-15T03:47:18.055Z,503.00
2023-04-15T03:48:18.428Z,507.00
2023-04-15T03:49:17.992Z,508.00
2023-04-15T03:50:17.951Z,506.00
2023-04-15T03:51:17.929Z,504.00
2023-04-15T03:52:17.908Z,507.00
2023-04-15T03:53:17.891Z,507.00
2023-04-15T03:54:17.876Z,508.00
2023-04-15T03:55:17.855Z,503.00
2023-04-15T03:56:17.827Z,505.00
2023-04-15T03:57:17.797Z,505.00
2023-04-15T03:58:17.789Z,506.00
2023-04-15T03:59:17.854Z,507.00
2023-04-15T04:00:17.933Z,501.00
2023-04-15T04:01:17.907Z,506.00
2023-04-15T04:02:17.989Z,504.00
2023-04-15T04:03:18.026Z,501.00
2023-04-15T04:04:17.930Z,509.00
2023-04-15T04:05:17.887Z,508.00
2023-04-15T04:06:17.950Z,506.00
2023-04-15T04:07:17.988Z,510.00
2023-04-15T04:08:17.944Z,504.00
2023-04-15T04:09:17.915Z,502.00
2023-04-15T04:10:17.898Z,510.00
2023-04-15T04:11:17.941Z,507.00
2023-04-15T04:12:17.998Z,502.00
2023-04-15T04:13:17.972Z,508.00
2023-04-15T04:14:17.949Z,504.00
2023-04-15T04:15:17.936Z,506.00
2023-04-15T04:16:17.970Z,507.00
2023-04-15T04:17:17.886Z,503.00
2023-04-15T04:18:17.926Z,507.00
2023-04-15T04:19:17.990Z,505.00
2023-04-15T04:20:18.062Z,506.00
2023-04-15T04:21:18.130Z,507.00
2023-04-15T04:22:18.253Z,510.00
2023-04-15T04:23:18.240Z,507.00
2023-04-15T04:24:18.209Z,505.00
2023-04-15T04:25:18.214Z,505.00
2023-04-15T04:26:18.156Z,505.00
2023-04-15T04:27:18.122Z,501.00
2023-04-15T04:28:18.177Z,502.00
2023-04-15T04:29:18.242Z,510.00
2023-04-15T04:30:18.320Z,511.00
2023-04-15T04:31:18.281Z,502.00
2023-04-15T04:32:18.259Z,505.00
2023-04-15T04:33:18.224Z,507.00
2023-04-15T04:34:18.205Z,506.00
2023-04-15T04:35:18.206Z,508.00
2023-04-15T04:36:18.205Z,503.00
2023-04-15T04:37:18.198Z,506.00
2023-04-15T04:38:18.159Z,505.00
2023-04-15T04:39:18.119Z,507.00
2023-04-15T04:40:18.118Z,503.00
2023-04-15T04:41:18.048Z,504.00
2023-04-15T04:42:18.095Z,507.00
2023-04-15T04:43:18.162Z,505.00
2023-04-15T04:44:18.126Z,505.00
2023-04-15T04:45:18.119Z,508.00
2023-04-15T04:46:18.162Z,505.00
2023-04-15T04:47:18.045Z,509.00
2023-04-15T04:48:18.018Z,509.00
2023-04-15T04:49:18.052Z,508.00
2023-04-15T04:50:18.144Z,505.00
2023-04-15T04:51:18.199Z,508.00
2023-04-15T04:52:18.162Z,509.00
2023-04-15T04:53:18.127Z,506.00
2023-04-15T04:54:18.107Z,504.00
2023-04-15T04:55:18.055Z,503.00
2023-04-15T04:56:18.017Z,507.00
2023-04-15T04:57:18.064Z,507.00
2023-04-15T04:58:18.157Z,509.00
2023-04-15T04:59:19.415Z,500.00
2023-04-15T05:00:18.151Z,507.00
2023-04-15T05:01:18.271Z,504.00
2023-04-15T05:02:18.284Z,502.00
2023-04-15T05:03:18.323Z,507.00
2023-04-15T05:04:18.226Z,507.00
2023-04-15T05:05:18.082Z,504.00
2023-04-15T05:06:18.111Z,507.00
2023-04-15T05:07:18.175Z,506.00
2023-04-15T05:08:18.159Z,502.00
2023-04-15T05:09:18.122Z,503.00
2023-04-15T05:10:18.102Z,500.00
2023-04-15T05:11:18.061Z,500.00
2023-04-15T05:12:18.029Z,507.00
2023-04-15T05:13:18.080Z,506.00
2023-04-15T05:14:18.044Z,505.00
2023-04-15T05:15:18.028Z,503.00
2023-04-15T05:16:18.053Z,504.00
2023-04-15T05:17:17.963Z,506.00
2023-04-15T05:18:17.935Z,508.00
2023-04-15T05:19:17.959Z,510.00
2023-04-15T05:20:17.934Z,507.00
2023-04-15T05:21:17.919Z,506.00
2023-04-15T05:22:17.890Z,504.00
2023-04-15T05:23:17.845Z,501.00
2023-04-15T05:24:17.810Z,507.00
2023-04-15T05:25:17.838Z,508.00
2023-04-15T05:26:17.902Z,508.00
2023-04-15T05:27:17.872Z,509.00
2023-04-15T05:28:17.833Z,502.00
2023-04-15T05:29:17.793Z,502.00
2023-04-15T05:30:17.764Z,503.00
2023-04-15T05:31:17.771Z,507.00
2023-04-15T05:32:17.764Z,507.00
2023-04-15T05:33:17.735Z,504.00
2023-04-15T05:34:17.716Z,503.00
2023-04-15T05:35:17.712Z,500.00
2023-04-15T05:36:17.671Z,510.00
2023-04-15T05:37:17.628Z,508.00
2023-04-15T05:38:17.630Z,510.00
2023-04-15T05:39:17.684Z,504.00
2023-04-15T05:40:17.634Z,506.00
2023-04-15T05:41:19.726Z,505.00
2023-04-15T05:42:17.629Z,503.00
2023-04-15T05:43:17.682Z,507.00
2023-04-15T05:44:17.665Z,506.00
2023-04-15T05:45:17.664Z,505.00
2023-04-15T05:46:17.702Z,510.00
2023-04-15T05:47:17.611Z,509.00
2023-04-15T05:48:17.578Z,502.00
2023-04-15T05:49:17.553Z,509.00
2023-04-15T05:50:17.516Z,502.00
2023-04-15T05:51:17.486Z,507.00
2023-04-15T05:52:17.456Z,509.00
2023-04-15T05:53:17.412Z,508.00
2023-04-15T05:54:19.287Z,506.00
2023-04-15T05:55:17.598Z,506.00
2023-04-15T05:56:17.568Z,508.00
2023-04-15T05:57:17.516Z,505.00
2023-04-15T05:58:17.474Z,510.00
2023-04-15T05:59:17.426Z,505.00
2023-04-15T06:00:17.442Z,501.00
2023-04-15T06:01:17.511Z,506.00
2023-04-15T06:02:17.685Z,504.00
2023-04-15T06:03:17.692Z,503.00
2023-04-15T06:04:17.755Z,503.00
2023-04-15T06:05:17.706Z,508.00
2023-04-15T06:06:17.758Z,504.00
2023-04-15T06:07:17.767Z,501.00
2023-04-15T06:08:17.731Z,501.00
2023-04-15T06:09:17.725Z,503.00
2023-04-15T06:10:17.729Z,504.00
2023-04-15T06:11:17.721Z,504.00
2023-04-15T06:12:17.714Z,502.00
2023-04-15T06:13:17.678Z,502.00
2023-04-15T06:14:17.735Z,505.00
2023-04-15T06:15:17.788Z,500.00
2023-04-15T06:16:17.884Z,503.00
2023-04-15T06:17:17.879Z,500.00
2023-04-15T06:18:17.874Z,500.00
2023-04-15T06:19:17.851Z,506.00
2023-04-15T06:20:17.825Z,502.00
2023-04-15T06:21:17.810Z,506.00
2023-04-15T06:22:17.795Z,508.00
2023-04-15T06:23:17.802Z,505.00
2023-04-15T06:24:17.793Z,503.00
2023-04-15T06:25:17.835Z,505.00
2023-04-15T06:26:17.881Z,500.00
2023-04-15T06:27:17.877Z,508.00
2023-04-15T06:28:17.882Z,506.00
2023-04-15T06:29:17.901Z,500.00
2023-04-15T06:30:17.868Z,505.00
2023-04-15T06:31:17.859Z,505.00
2023-04-15T06:32:17.812Z,507.00
2023-04-15T06:33:17.825Z,511.00
2023-04-15T06:34:17.799Z,503.00
2023-04-15T06:35:17.841Z,505.00
2023-04-15T06:36:17.887Z,507.00
2023-04-15T06:37:17.922Z,507.00
2023-04-15T06:38:17.919Z,505.00
2023-04-15T06:39:17.920Z,507.00
2023-04-15T06:40:17.893Z,513.00
2023-04-15T06:41:17.874Z,510.00
2023-04-15T06:42:17.868Z,512.00
2023-04-15T06:43:17.874Z,509.00
2023-04-15T06:44:17.873Z,506.00
2023-04-15T06:45:17.892Z,505.00
2023-04-15T06:46:18.043Z,507.00
2023-04-15T06:47:17.948Z,506.00
2023-04-15T06:48:17.949Z,509.00
2023-04-15T06:49:17.950Z,509.00
2023-04-15T06:50:17.987Z,503.00
2023-04-15T06:51:18.018Z,505.00
2023-04-15T06:52:18.046Z,510.00
2023-04-15T06:53:18.054Z,503.00
2023-04-15T06:54:18.050Z,505.00
2023-04-15T06:55:18.085Z,506.00
2023-04-15T06:56:18.091Z,506.00
2023-04-15T06:57:18.103Z,504.00
2023-04-15T06:58:18.129Z,507.00
2023-04-15T06:59:18.154Z,507.00
2023-04-15T07:00:18.167Z,508.00
2023-04-15T07:01:18.194Z,505.00
2023-04-15T07:02:18.456Z,505.00
2023-04-15T07:03:18.296Z,507.00
2023-04-15T07:04:18.323Z,504.00
2023-04-15T07:05:18.297Z,509.00
2023-04-15T07:06:18.322Z,505.00
2023-04-15T07:07:18.348Z,501.00
2023-04-15T07:08:18.382Z,506.00
2023-04-15T07:09:18.397Z,511.00
2023-04-15T07:10:18.435Z,505.00
2023-04-15T07:11:18.447Z,505.00
2023-04-15T07:12:18.478Z,506.00
2023-04-15T07:13:18.523Z,503.00
2023-04-15T07:14:18.532Z,506.00
2023-04-15T07:15:18.547Z,508.00
2023-04-15T07:16:18.609Z,509.00
2023-04-15T07:17:18.624Z,510.00
2023-04-15T07:18:18.602Z,512.00
2023-04-15T07:19:18.625Z,507.00
2023-04-15T07:20:18.646Z,515.00
2023-04-15T07:21:18.661Z,517.00
2023-04-15T07:22:18.677Z,515.00
2023-04-15T07:23:18.700Z,511.00
2023-04-15T07:24:18.715Z,519.00
2023-04-15T07:25:18.726Z,512.00
2023-04-15T07:26:18.746Z,513.00
2023-04-15T07:27:18.777Z,510.00
2023-04-15T07:28:18.784Z,509.00
2023-04-15T07:29:18.789Z,509.00
2023-04-15T07:30:18.825Z,510.00
2023-04-15T07:31:18.850Z,512.00
2023-04-15T07:32:18.980Z,508.00
2023-04-15T07:33:18.868Z,508.00
2023-04-15T07:34:18.905Z,514.00
2023-04-15T07:35:18.898Z,513.00
2023-04-15T07:36:18.926Z,509.00
2023-04-15T07:37:18.969Z,510.00
2023-04-15T07:38:18.952Z,508.00
2023-04-15T07:39:18.973Z,508.00
2023-04-15T07:40:18.986Z,511.00
2023-04-15T07:41:19.026Z,514.00
2023-04-15T07:42:19.037Z,510.00
2023-04-15T07:43:19.054Z,507.00
2023-04-15T07:44:19.076Z,506.00
2023-04-15T07:45:19.130Z,511.00
2023-04-15T07:46:19.129Z,510.00
2023-04-15T07:47:19.171Z,510.00
2023-04-15T07:48:19.168Z,508.00
2023-04-15T07:49:19.194Z,508.00
2023-04-15T07:50:19.214Z,510.00
2023-04-15T07:51:19.238Z,500.00
2023-04-15T07:52:19.267Z,511.00
2023-04-15T07:53:19.300Z,510.00
2023-04-15T07:54:19.329Z,512.00
2023-04-15T07:55:19.363Z,513.00
2023-04-15T07:56:19.385Z,507.00
2023-04-15T07:57:19.404Z,504.00
2023-04-15T07:58:19.424Z,512.00
2023-04-15T07:59:19.452Z,510.00
2023-04-15T08:00:19.490Z,505.00
2023-04-15T08:01:19.513Z,511.00
2023-04-15T08:02:19.632Z,509.00
2023-04-15T08:03:19.633Z,508.00
2023-04-15T08:04:19.788Z,509.00
2023-04-15T08:05:19.672Z,509.00
2023-04-15T08:06:19.635Z,507.00
2023-04-15T08:07:19.639Z,507.00
2023-04-15T08:08:19.675Z,508.00
2023-04-15T08:09:20.201Z,502.00
2023-04-15T08:10:19.713Z,509.00
2023-04-15T08:11:19.725Z,512.00
2023-04-15T08:12:19.748Z,512.00
2023-04-15T08:13:19.767Z,505.00
2023-04-15T08:14:19.785Z,509.00
2023-04-15T08:15:19.820Z,502.00
2023-04-15T08:16:19.903Z,511.00
2023-04-15T08:17:19.907Z,512.00
2023-04-15T08:18:19.872Z,511.00
2023-04-15T08:19:19.875Z,515.00
2023-04-15T08:20:19.912Z,508.00
2023-04-15T08:21:19.915Z,505.00
2023-04-15T08:22:21.216Z,507.00
2023-04-15T08:23:19.977Z,509.00
2023-04-15T08:24:19.984Z,507.00
2023-04-15T08:25:20.024Z,511.00
2023-04-15T08:26:19.962Z,512.00
2023-04-15T08:27:19.920Z,512.00
2023-04-15T08:28:19.886Z,512.00
2023-04-15T08:29:19.892Z,515.00
2023-04-15T08:30:19.815Z,513.00
2023-04-15T08:31:19.833Z,516.00
2023-04-15T08:32:19.782Z,513.00
2023-04-15T08:33:19.711Z,515.00
2023-04-15T08:34:19.667Z,507.00
2023-04-15T08:35:19.660Z,516.00
2023-04-15T08:36:19.676Z,517.00
2023-04-15T08:37:19.692Z,508.00
2023-04-15T08:38:19.732Z,510.00
2023-04-15T08:39:19.723Z,512.00
2023-04-15T08:40:19.775Z,511.00
2023-04-15T08:41:19.764Z,519.00
2023-04-15T08:42:19.779Z,520.00
2023-04-15T08:43:19.798Z,514.00
2023-04-15T08:44:19.808Z,515.00
2023-04-15T08:45:19.824Z,515.00
2023-04-15T08:46:19.888Z,514.00
2023-04-15T08:47:19.884Z,518.00
2023-04-15T08:48:19.876Z,516.00
2023-04-15T08:49:19.890Z,513.00
2023-04-15T08:50:19.896Z,511.00
2023-04-15T08:51:19.919Z,511.00
2023-04-15T08:52:19.901Z,504.00
2023-04-15T08:53:19.915Z,514.00
2023-04-15T08:54:19.931Z,507.00
2023-04-15T08:55:19.937Z,515.00
2023-04-15T08:56:19.948Z,510.00
2023-04-15T08:57:19.951Z,512.00
2023-04-15T08:58:19.948Z,513.00
2023-04-15T08:59:19.949Z,513.00
2023-04-15T09:00:19.954Z,513.00
2023-04-15T09:01:19.994Z,504.00
2023-04-15T09:02:20.086Z,513.00
2023-04-15T09:03:20.007Z,514.00
2023-04-15T09:04:20.137Z,500.00
2023-04-15T09:05:19.968Z,523.00
2023-04-15T09:06:19.969Z,519.00
2023-04-15T09:07:19.980Z,520.00
2023-04-15T09:08:20.047Z,509.00
2023-04-15T09:09:19.996Z,515.00
2023-04-15T09:10:19.987Z,506.00
2023-04-15T09:11:20.299Z,514.00
2023-04-15T09:12:20.009Z,512.00
2023-04-15T09:13:19.998Z,505.00
2023-04-15T09:14:20.014Z,515.00
2023-04-15T09:15:20.019Z,513.00
2023-04-15T09:16:20.077Z,510.00
2023-04-15T09:17:20.077Z,516.00
2023-04-15T09:18:20.038Z,507.00
2023-04-15T09:19:20.042Z,518.00
2023-04-15T09:20:20.061Z,515.00
2023-04-15T09:21:20.059Z,512.00
2023-04-15T09:22:20.071Z,521.00
2023-04-15T09:23:20.088Z,523.00
2023-04-15T09:24:20.087Z,521.00
2023-04-15T09:25:20.089Z,514.00
2023-04-15T09:26:20.091Z,508.00
2023-04-15T09:27:20.094Z,524.00
2023-04-15T09:28:20.115Z,527.00
2023-04-15T09:29:20.102Z,522.00
2023-04-15T09:30:20.127Z,512.00
2023-04-15T09:31:20.172Z,522.00
2023-04-15T09:32:20.133Z,510.00
2023-04-15T09:33:20.144Z,518.00
2023-04-15T09:34:20.150Z,525.00
2023-04-15T09:35:20.174Z,509.00
2023-04-15T09:36:20.178Z,519.00
2023-04-15T09:37:31.749Z,510.00
2023-04-15T09:38:21.148Z,511.00
2023-04-15T09:39:20.101Z,512.00
2023-04-15T09:40:20.076Z,513.00
2023-04-15T09:41:20.023Z,505.00
2023-04-15T09:42:19.999Z,517.00
2023-04-15T09:43:19.952Z,513.00
2023-04-15T09:44:19.897Z,514.00
2023-04-15T09:45:19.880Z,496.00
2023-04-15T09:46:19.894Z,522.00
2023-04-15T09:47:19.850Z,515.00
2023-04-15T09:48:19.747Z,526.00
2023-04-15T09:49:19.753Z,523.00
2023-04-15T09:50:19.741Z,529.00
2023-04-15T09:51:19.737Z,514.00
2023-04-15T09:52:19.741Z,523.00
2023-04-15T09:53:19.739Z,520.00
2023-04-15T09:54:19.734Z,513.00
2023-04-15T09:55:19.741Z,526.00
2023-04-15T09:56:19.741Z,515.00
2023-04-15T09:57:19.753Z,521.00
2023-04-15T09:58:19.765Z,518.00
2023-04-15T09:59:20.197Z,524.00
2023-04-15T10:00:19.784Z,521.00
2023-04-15T10:01:19.836Z,517.00
2023-04-15T10:02:19.920Z,520.00
2023-04-15T10:03:19.910Z,509.00
2023-04-15T10:04:19.854Z,513.00
2023-04-15T10:05:19.787Z,507.00
2023-04-15T10:06:19.799Z,518.00
2023-04-15T10:07:19.808Z,526.00
2023-04-15T10:08:19.825Z,526.00
2023-04-15T10:09:19.817Z,524.00
2023-04-15T10:10:19.847Z,517.00
2023-04-15T10:11:19.827Z,522.00
2023-04-15T10:12:19.835Z,523.00
2023-04-15T10:13:19.844Z,519.00
2023-04-15T10:14:19.842Z,515.00
2023-04-15T10:15:19.850Z,529.00
2023-04-15T10:16:19.929Z,513.00
2023-04-15T10:17:19.846Z,523.00
2023-04-15T10:18:19.849Z,505.00
2023-04-15T10:19:19.856Z,524.00
2023-04-15T10:20:19.859Z,516.00
2023-04-15T10:21:19.864Z,515.00
2023-04-15T10:22:19.875Z,513.00
2023-04-15T10:23:19.889Z,523.00
2023-04-15T10:24:19.895Z,510.00
2023-04-15T10:25:19.885Z,517.00
2023-04-15T10:26:19.896Z,511.00
2023-04-15T10:27:19.898Z,523.00
2023-04-15T10:28:19.903Z,518.00
2023-04-15T10:29:19.915Z,515.00
2023-04-15T10:30:20.743Z,523.00
2023-04-15T10:31:19.972Z,510.00
2023-04-15T10:32:19.976Z,515.00
2023-04-15T10:33:19.939Z,512.00
2023-04-15T10:34:20.001Z,510.00
2023-04-15T10:35:19.939Z,512.00
2023-04-15T10:36:19.946Z,506.00
2023-04-15T10:37:19.946Z,519.00
2023-04-15T10:38:19.954Z,515.00
2023-04-15T10:39:19.955Z,522.00
2023-04-15T10:40:19.955Z,513.00
2023-04-15T10:41:20.749Z,517.00
2023-04-15T10:42:19.954Z,509.00
2023-04-15T10:43:19.961Z,519.00
2023-04-15T10:44:19.978Z,521.00
2023-04-15T10:45:19.973Z,522.00
2023-04-15T10:46:20.029Z,522.00
2023-04-15T10:47:19.996Z,519.00
2023-04-15T10:48:19.992Z,532.00
2023-04-15T10:49:19.995Z,515.00
2023-04-15T10:50:20.017Z,521.00
2023-04-15T10:51:20.036Z,524.00
2023-04-15T10:52:20.023Z,511.00
2023-04-15T10:53:21.802Z,522.00
2023-04-15T10:54:20.029Z,500.00
2023-04-15T10:55:20.035Z,523.00
2023-04-15T10:56:20.035Z,514.00
2023-04-15T10:57:20.044Z,511.00
2023-04-15T10:58:20.039Z,525.00
2023-04-15T10:59:21.415Z,508.00
2023-04-15T11:00:20.057Z,517.00
2023-04-15T11:01:20.053Z,521.00
2023-04-15T11:02:20.102Z,520.00
2023-04-15T11:03:20.144Z,514.00
2023-04-15T11:04:20.095Z,522.00
2023-04-15T11:05:20.048Z,516.00
2023-04-15T11:06:20.043Z,523.00
2023-04-15T11:07:20.046Z,523.00
2023-04-15T11:08:20.055Z,518.00
2023-04-15T11:09:20.056Z,518.00
2023-04-15T11:10:20.059Z,516.00
2023-04-15T11:11:20.066Z,510.00
2023-04-15T11:12:20.070Z,510.00
2023-04-15T11:13:20.074Z,522.00
2023-04-15T11:14:20.094Z,516.00
2023-04-15T11:15:20.094Z,516.00
2023-04-15T11:16:20.147Z,520.00
2023-04-15T11:17:20.110Z,513.00
2023-04-15T11:18:20.115Z,514.00
2023-04-15T11:19:20.127Z,507.00
2023-04-15T11:20:20.129Z,515.00
2023-04-15T11:21:20.123Z,510.00
2023-04-15T11:22:20.124Z,520.00
2023-04-15T11:23:20.138Z,502.00
2023-04-15T11:24:20.136Z,508.00
2023-04-15T11:25:20.157Z,507.00
2023-04-15T11:26:20.145Z,515.00
2023-04-15T11:27:20.151Z,511.00
2023-04-15T11:28:20.169Z,516.00
2023-04-15T11:29:20.169Z,509.00
2023-04-15T11:30:20.184Z,519.00
2023-04-15T11:31:20.428Z,497.00
2023-04-15T11:32:20.227Z,518.00
2023-04-15T11:33:20.210Z,526.00
2023-04-15T11:34:20.210Z,520.00
2023-04-15T11:35:20.230Z,508.00
2023-04-15T11:36:20.240Z,520.00
2023-04-15T11:37:20.251Z,522.00
2023-04-15T11:38:20.256Z,522.00
2023-04-15T11:39:20.271Z,500.00
2023-04-15T11:40:20.283Z,519.00
2023-04-15T11:41:20.287Z,516.00
2023-04-15T11:42:20.299Z,503.00
2023-04-15T11:43:20.300Z,521.00
2023-04-15T11:44:20.305Z,524.00
2023-04-15T11:45:20.326Z,522.00
2023-04-15T11:46:20.366Z,507.00
2023-04-15T11:47:20.349Z,517.00
2023-04-15T11:48:20.361Z,527.00
2023-04-15T11:49:20.371Z,517.00
2023-04-15T11:50:20.406Z,525.00
2023-04-15T11:51:20.397Z,526.00
2023-04-15T11:52:20.411Z,523.00
2023-04-15T11:53:20.429Z,515.00
2023-04-15T11:54:20.446Z,507.00
2023-04-15T11:55:20.471Z,514.00
2023-04-15T11:56:20.485Z,522.00
2023-04-15T11:57:20.495Z,526.00
2023-04-15T11:58:20.517Z,519.00
2023-04-15T11:59:20.521Z,516.00
2023-04-15T12:00:20.553Z,522.00
2023-04-15T12:01:20.555Z,520.00
2023-04-15T12:02:20.680Z,522.00
2023-04-15T12:03:20.697Z,512.00
2023-04-15T12:04:24.260Z,520.00
2023-04-15T12:05:20.661Z,520.00
2023-04-15T12:06:20.522Z,520.00
2023-04-15T12:07:20.468Z,520.00
2023-04-15T12:08:20.422Z,518.00
2023-04-15T12:09:20.470Z,507.00
2023-04-15T12:10:20.341Z,515.00
2023-04-15T12:11:20.307Z,524.00
2023-04-15T12:12:20.259Z,517.00
2023-04-15T12:13:20.225Z,516.00
2023-04-15T12:14:20.196Z,519.00
2023-04-15T12:15:20.140Z,508.00
2023-04-15T12:16:20.186Z,518.00
2023-04-15T12:17:20.117Z,516.00
2023-04-15T12:18:20.113Z,503.00
2023-04-15T12:19:20.143Z,510.00
2023-04-15T12:20:20.160Z,517.00
2023-04-15T12:21:20.185Z,514.00
2023-04-15T12:22:20.244Z,514.00
2023-04-15T12:23:20.231Z,518.00
2023-04-15T12:24:20.250Z,518.00
2023-04-15T12:25:20.283Z,519.00
2023-04-15T12:26:20.297Z,520.00
2023-04-15T12:27:20.327Z,520.00
2023-04-15T12:28:20.356Z,518.00